sensor_id;sensor_type;location;lat;lon;timestamp;pressure;altitude;pressure_sealevel;temperature;humidity
64876;BME280;51369;49.862;9.908;2023-01-30T00:00:50;98846.97;;;0.26;73.85
64876;BME280;51369;49.862;9.908;2023-01-30T00:03:16;98847.00;;;0.32;74.03
64876;BME280;51369;49.862;9.908;2023-01-30T00:05:42;98848.78;;;0.35;74.04
64876;BME280;51369;49.862;9.908;2023-01-30T00:08:07;98855.00;;;0.39;73.77
64876;BME280;51369;49.862;9.908;2023-01-30T00:10:32;98857.66;;;0.42;73.76
64876;BME280;51369;49.862;9.908;2023-01-30T00:12:58;98849.72;;;0.45;73.88
64876;BME280;51369;49.862;9.908;2023-01-30T00:15:23;98844.44;;;0.49;73.52
64876;BME280;51369;49.862;9.908;2023-01-30T00:17:48;98819.63;;;0.52;73.29
64876;BME280;51369;49.862;9.908;2023-01-30T00:20:14;98814.34;;;0.53;73.38
64876;BME280;51369;49.862;9.908;2023-01-30T00:22:39;98811.69;;;0.56;74.01
64876;BME280;51369;49.862;9.908;2023-01-30T00:25:05;98813.47;;;0.59;74.36
64876;BME280;51369;49.862;9.908;2023-01-30T00:27:30;98816.13;;;0.62;73.48
64876;BME280;51369;49.862;9.908;2023-01-30T00:29:56;98825.00;;;0.65;74.40
64876;BME280;51369;49.862;9.908;2023-01-30T00:32:21;98820.59;;;0.69;74.08
64876;BME280;51369;49.862;9.908;2023-01-30T00:34:49;98809.09;;;0.72;74.22
64876;BME280;51369;49.862;9.908;2023-01-30T00:37:15;98816.19;;;0.76;73.94
64876;BME280;51369;49.862;9.908;2023-01-30T00:39:40;98805.56;;;0.79;74.18
64876;BME280;51369;49.862;9.908;2023-01-30T00:42:05;98790.50;;;0.81;74.07
64876;BME280;51369;49.862;9.908;2023-01-30T00:44:49;98800.28;;;0.85;73.59
64876;BME280;51369;49.862;9.908;2023-01-30T00:47:33;98803.81;;;0.87;73.69
64876;BME280;51369;49.862;9.908;2023-01-30T00:49:59;98787.00;;;0.91;73.74
64876;BME280;51369;49.862;9.908;2023-01-30T00:52:24;98787.88;;;0.93;74.56
64876;BME280;51369;49.862;9.908;2023-01-30T00:54:49;98787.00;;;0.95;74.57
64876;BME280;51369;49.862;9.908;2023-01-30T00:57:16;98772.81;;;0.98;74.32
64876;BME280;51369;49.862;9.908;2023-01-30T00:59:42;98765.75;;;1.00;74.16
64876;BME280;51369;49.862;9.908;2023-01-30T01:02:10;98756.00;;;1.01;74.10
64876;BME280;51369;49.862;9.908;2023-01-30T01:04:35;98771.94;;;1.02;74.34
64876;BME280;51369;49.862;9.908;2023-01-30T01:07:08;98742.72;;;1.04;74.51
64876;BME280;51369;49.862;9.908;2023-01-30T01:09:34;98731.19;;;1.03;74.74
64876;BME280;51369;49.862;9.908;2023-01-30T01:12:00;98728.53;;;1.05;74.32
64876;BME280;51369;49.862;9.908;2023-01-30T01:14:25;98726.75;;;1.04;74.89
64876;BME280;51369;49.862;9.908;2023-01-30T01:16:51;98721.44;;;1.04;74.96
64876;BME280;51369;49.862;9.908;2023-01-30T01:19:17;98701.94;;;1.03;74.60
64876;BME280;51369;49.862;9.908;2023-01-30T01:21:42;98693.97;;;1.03;74.77
64876;BME280;51369;49.862;9.908;2023-01-30T01:24:10;98710.81;;;1.04;74.90
64876;BME280;51369;49.862;9.908;2023-01-30T01:26:36;98708.13;;;1.04;75.60
64876;BME280;51369;49.862;9.908;2023-01-30T01:29:02;98700.16;;;1.04;75.75
64876;BME280;51369;49.862;9.908;2023-01-30T01:31:28;98688.66;;;1.05;75.49
64876;BME280;51369;49.862;9.908;2023-01-30T01:33:54;98685.97;;;1.06;76.55
64876;BME280;51369;49.862;9.908;2023-01-30T01:36:19;98676.22;;;1.08;76.25
64876;BME280;51369;49.862;9.908;2023-01-30T01:38:45;98692.19;;;1.11;76.91
64876;BME280;51369;49.862;9.908;2023-01-30T01:41:12;98700.16;;;1.13;76.97
64876;BME280;51369;49.862;9.908;2023-01-30T01:46:44;98688.63;;;1.18;77.35
64876;BME280;51369;49.862;9.908;2023-01-30T01:51:55;98677.09;;;1.25;77.51
64876;BME280;51369;49.862;9.908;2023-01-30T01:57:00;98676.22;;;1.29;77.56
64876;BME280;51369;49.862;9.908;2023-01-30T01:59:31;98675.34;;;1.32;77.07
64876;BME280;51369;49.862;9.908;2023-01-30T02:02:01;98667.34;;;1.35;77.87
64876;BME280;51369;49.862;9.908;2023-01-30T02:04:28;98654.94;;;1.37;77.91
64876;BME280;51369;49.862;9.908;2023-01-30T02:07:17;98659.34;;;1.40;76.62
64876;BME280;51369;49.862;9.908;2023-01-30T02:09:46;98638.97;;;1.42;77.54
64876;BME280;51369;49.862;9.908;2023-01-30T02:12:13;98644.28;;;1.45;77.26
64876;BME280;51369;49.862;9.908;2023-01-30T02:14:39;98646.03;;;1.46;77.45
64876;BME280;51369;49.862;9.908;2023-01-30T02:17:04;98652.25;;;1.46;77.06
64876;BME280;51369;49.862;9.908;2023-01-30T02:19:36;98662.88;;;1.49;77.08
64876;BME280;51369;49.862;9.908;2023-01-30T02:25:09;98652.22;;;1.52;77.22
64876;BME280;51369;49.862;9.908;2023-01-30T02:28:11;98653.13;;;1.54;77.66
64876;BME280;51369;49.862;9.908;2023-01-30T02:34:14;98653.09;;;1.59;77.85
64876;BME280;51369;49.862;9.908;2023-01-30T02:39:51;98625.59;;;1.61;77.12
64876;BME280;51369;49.862;9.908;2023-01-30T02:42:37;98626.47;;;1.65;77.78
64876;BME280;51369;49.862;9.908;2023-01-30T02:47:54;98606.94;;;1.71;77.85
64876;BME280;51369;49.862;9.908;2023-01-30T02:50:24;98594.50;;;1.73;76.97
64876;BME280;51369;49.862;9.908;2023-01-30T02:52:53;98590.91;;;1.75;77.66
64876;BME280;51369;49.862;9.908;2023-01-30T02:55:24;98592.69;;;1.76;76.66
64876;BME280;51369;49.862;9.908;2023-01-30T02:57:50;98596.22;;;1.80;77.25
64876;BME280;51369;49.862;9.908;2023-01-30T03:00:21;98589.13;;;1.80;76.40
64876;BME280;51369;49.862;9.908;2023-01-30T03:11:07;98616.59;;;1.90;76.17
64876;BME280;51369;49.862;9.908;2023-01-30T03:16:32;98605.91;;;1.93;76.54
64876;BME280;51369;49.862;9.908;2023-01-30T03:19:00;98600.59;;;1.94;76.85
64876;BME280;51369;49.862;9.908;2023-01-30T03:21:26;98595.25;;;1.96;76.52
64876;BME280;51369;49.862;9.908;2023-01-30T03:23:51;98597.03;;;1.97;76.40
64876;BME280;51369;49.862;9.908;2023-01-30T03:26:19;98593.47;;;1.98;76.56
64876;BME280;51369;49.862;9.908;2023-01-30T03:28:48;98605.88;;;1.99;76.27
64876;BME280;51369;49.862;9.908;2023-01-30T03:31:14;98590.78;;;2.00;75.94
64876;BME280;51369;49.862;9.908;2023-01-30T03:33:41;98584.59;;;1.99;76.80
64876;BME280;51369;49.862;9.908;2023-01-30T03:36:08;98585.47;;;2.00;76.02
64876;BME280;51369;49.862;9.908;2023-01-30T03:38:34;98588.13;;;2.00;76.35
64876;BME280;51369;49.862;9.908;2023-01-30T03:41:00;98591.69;;;2.02;76.80
64876;BME280;51369;49.862;9.908;2023-01-30T03:43:26;98594.34;;;2.02;76.88
64876;BME280;51369;49.862;9.908;2023-01-30T03:45:51;98583.69;;;2.03;76.34
64876;BME280;51369;49.862;9.908;2023-01-30T03:48:17;98574.81;;;2.03;77.07
64876;BME280;51369;49.862;9.908;2023-01-30T03:50:42;98581.91;;;2.05;76.81
64876;BME280;51369;49.862;9.908;2023-01-30T03:53:08;98585.44;;;2.06;77.35
64876;BME280;51369;49.862;9.908;2023-01-30T03:55:34;98571.25;;;2.05;77.06
64876;BME280;51369;49.862;9.908;2023-01-30T03:58:00;98566.81;;;2.06;77.13
64876;BME280;51369;49.862;9.908;2023-01-30T04:00:29;98565.00;;;2.08;76.65
64876;BME280;51369;49.862;9.908;2023-01-30T04:02:55;98565.88;;;2.10;77.33
64876;BME280;51369;49.862;9.908;2023-01-30T04:05:22;98567.66;;;2.11;76.76
64876;BME280;51369;49.862;9.908;2023-01-30T04:07:55;98556.13;;;2.10;76.94
64876;BME280;51369;49.862;9.908;2023-01-30T04:10:21;98555.22;;;2.13;76.70
64876;BME280;51369;49.862;9.908;2023-01-30T04:12:46;98543.66;;;2.15;76.79
64876;BME280;51369;49.862;9.908;2023-01-30T04:15:12;98546.31;;;2.18;76.26
64876;BME280;51369;49.862;9.908;2023-01-30T04:17:46;98550.72;;;2.21;77.17
64876;BME280;51369;49.862;9.908;2023-01-30T04:20:38;98538.25;;;2.26;76.72
64876;BME280;51369;49.862;9.908;2023-01-30T04:23:04;98544.47;;;2.28;76.30
64876;BME280;51369;49.862;9.908;2023-01-30T04:25:30;98534.69;;;2.30;76.61
64876;BME280;51369;49.862;9.908;2023-01-30T04:27:56;98532.88;;;2.34;76.84
64876;BME280;51369;49.862;9.908;2023-01-30T04:30:28;98529.28;;;2.38;76.53
64876;BME280;51369;49.862;9.908;2023-01-30T04:33:09;98544.38;;;2.40;76.53
64876;BME280;51369;49.862;9.908;2023-01-30T04:35:35;98531.91;;;2.42;75.83
64876;BME280;51369;49.862;9.908;2023-01-30T04:38:00;98523.91;;;2.44;76.44
64876;BME280;51369;49.862;9.908;2023-01-30T04:40:26;98527.44;;;2.47;76.01
64876;BME280;51369;49.862;9.908;2023-01-30T04:42:51;98526.50;;;2.51;75.44
64876;BME280;51369;49.862;9.908;2023-01-30T04:45:55;98518.50;;;2.53;76.08
64876;BME280;51369;49.862;9.908;2023-01-30T04:48:22;98516.72;;;2.55;75.34
64876;BME280;51369;49.862;9.908;2023-01-30T04:50:50;98516.69;;;2.56;75.58
64876;BME280;51369;49.862;9.908;2023-01-30T04:53:16;98498.91;;;2.58;75.63
64876;BME280;51369;49.862;9.908;2023-01-30T04:55:42;98493.56;;;2.60;74.92
64876;BME280;51369;49.862;9.908;2023-01-30T04:58:07;98495.34;;;2.61;76.01
64876;BME280;51369;49.862;9.908;2023-01-30T05:00:33;98490.88;;;2.63;75.98
64876;BME280;51369;49.862;9.908;2023-01-30T05:02:59;98488.19;;;2.65;75.31
64876;BME280;51369;49.862;9.908;2023-01-30T05:05:26;98485.50;;;2.66;75.16
64876;BME280;51369;49.862;9.908;2023-01-30T05:07:52;98486.41;;;2.67;75.25
64876;BME280;51369;49.862;9.908;2023-01-30T05:10:17;98479.28;;;2.67;75.74
64876;BME280;51369;49.862;9.908;2023-01-30T05:12:43;98483.72;;;2.68;75.28
64876;BME280;51369;49.862;9.908;2023-01-30T05:15:09;98480.16;;;2.68;74.93
64876;BME280;51369;49.862;9.908;2023-01-30T05:17:36;98478.38;;;2.70;75.63
64876;BME280;51369;49.862;9.908;2023-01-30T05:20:02;98489.03;;;2.71;74.85
64876;BME280;51369;49.862;9.908;2023-01-30T05:22:28;98494.34;;;2.71;75.28
64876;BME280;51369;49.862;9.908;2023-01-30T05:24:53;98489.88;;;2.73;75.23
64876;BME280;51369;49.862;9.908;2023-01-30T05:27:19;98474.78;;;2.72;74.94
64876;BME280;51369;49.862;9.908;2023-01-30T05:29:44;98471.22;;;2.75;75.15
64876;BME280;51369;49.862;9.908;2023-01-30T05:32:14;98457.91;;;2.73;75.55
64876;BME280;51369;49.862;9.908;2023-01-30T05:34:39;98453.44;;;2.74;75.53
64876;BME280;51369;49.862;9.908;2023-01-30T05:37:05;98452.56;;;2.75;75.31
64876;BME280;51369;49.862;9.908;2023-01-30T05:39:30;98460.53;;;2.75;75.59
64876;BME280;51369;49.862;9.908;2023-01-30T05:41:56;98462.34;;;2.74;75.42
64876;BME280;51369;49.862;9.908;2023-01-30T05:44:21;98456.97;;;2.76;75.53
64876;BME280;51369;49.862;9.908;2023-01-30T05:46:47;98456.09;;;2.75;75.53
64876;BME280;51369;49.862;9.908;2023-01-30T05:49:12;98455.22;;;2.75;75.62
64876;BME280;51369;49.862;9.908;2023-01-30T05:51:38;98468.53;;;2.76;76.25
64876;BME280;51369;49.862;9.908;2023-01-30T05:54:03;98464.97;;;2.77;76.15
64876;BME280;51369;49.862;9.908;2023-01-30T05:56:28;98461.41;;;2.77;74.94
64876;BME280;51369;49.862;9.908;2023-01-30T05:58:58;98462.28;;;2.77;75.73
64876;BME280;51369;49.862;9.908;2023-01-30T06:01:23;98465.84;;;2.78;74.82
64876;BME280;51369;49.862;9.908;2023-01-30T06:03:49;98485.41;;;2.78;75.52
64876;BME280;51369;49.862;9.908;2023-01-30T06:06:15;98469.41;;;2.78;74.96
64876;BME280;51369;49.862;9.908;2023-01-30T06:08:40;98474.72;;;2.80;75.33
64876;BME280;51369;49.862;9.908;2023-01-30T06:11:10;98467.63;;;2.79;75.38
64876;BME280;51369;49.862;9.908;2023-01-30T06:13:36;98460.47;;;2.81;75.91
64876;BME280;51369;49.862;9.908;2023-01-30T06:16:03;98458.72;;;2.80;76.27
64876;BME280;51369;49.862;9.908;2023-01-30T06:18:28;98460.47;;;2.81;76.13
64876;BME280;51369;49.862;9.908;2023-01-30T06:20:54;98456.03;;;2.81;76.47
64876;BME280;51369;49.862;9.908;2023-01-30T06:23:20;98458.69;;;2.81;76.20
64876;BME280;51369;49.862;9.908;2023-01-30T06:25:48;98453.34;;;2.83;75.62
64876;BME280;51369;49.862;9.908;2023-01-30T06:28:15;98436.47;;;2.82;75.80
64876;BME280;51369;49.862;9.908;2023-01-30T06:30:41;98442.66;;;2.84;75.69
64876;BME280;51369;49.862;9.908;2023-01-30T06:33:07;98436.44;;;2.85;75.79
64876;BME280;51369;49.862;9.908;2023-01-30T06:35:33;98437.31;;;2.86;76.02
64876;BME280;51369;49.862;9.908;2023-01-30T06:37:58;98424.84;;;2.88;76.42
64876;BME280;51369;49.862;9.908;2023-01-30T06:40:24;98434.63;;;2.89;76.09
64876;BME280;51369;49.862;9.908;2023-01-30T06:42:50;98433.72;;;2.90;76.25
64876;BME280;51369;49.862;9.908;2023-01-30T06:45:17;98427.47;;;2.91;76.35
64876;BME280;51369;49.862;9.908;2023-01-30T06:47:53;98417.72;;;2.91;75.73
64876;BME280;51369;49.862;9.908;2023-01-30T06:50:21;98423.91;;;2.93;76.31
64876;BME280;51369;49.862;9.908;2023-01-30T06:52:48;98413.22;;;2.93;76.63
64876;BME280;51369;49.862;9.908;2023-01-30T06:55:17;98417.69;;;2.93;75.76
64876;BME280;51369;49.862;9.908;2023-01-30T06:57:43;98415.88;;;2.95;76.10
64876;BME280;51369;49.862;9.908;2023-01-30T07:00:18;98420.34;;;2.94;75.80
64876;BME280;51369;49.862;9.908;2023-01-30T07:02:44;98423.88;;;2.97;76.30
64876;BME280;51369;49.862;9.908;2023-01-30T07:05:09;98410.53;;;2.97;75.79
64876;BME280;51369;49.862;9.908;2023-01-30T07:07:35;98413.16;;;3.00;76.14
64876;BME280;51369;49.862;9.908;2023-01-30T07:10:01;98391.81;;;3.00;76.50
64876;BME280;51369;49.862;9.908;2023-01-30T07:12:27;98398.94;;;3.01;76.72
64876;BME280;51369;49.862;9.908;2023-01-30T07:14:53;98409.59;;;3.01;76.85
64876;BME280;51369;49.862;9.908;2023-01-30T07:17:19;98429.16;;;3.01;77.04
64876;BME280;51369;49.862;9.908;2023-01-30T07:19:45;98436.25;;;3.01;77.25
64876;BME280;51369;49.862;9.908;2023-01-30T07:22:11;98430.03;;;3.00;77.01
64876;BME280;51369;49.862;9.908;2023-01-30T07:24:37;98424.72;;;3.00;76.15
64876;BME280;51369;49.862;9.908;2023-01-30T07:27:06;98425.59;;;3.01;76.36
64876;BME280;51369;49.862;9.908;2023-01-30T07:29:33;98427.38;;;3.00;76.15
64876;BME280;51369;49.862;9.908;2023-01-30T07:31:59;98420.28;;;2.98;75.98
64876;BME280;51369;49.862;9.908;2023-01-30T07:34:25;98422.06;;;2.99;77.07
64876;BME280;51369;49.862;9.908;2023-01-30T07:36:50;98426.50;;;2.98;75.95
64876;BME280;51369;49.862;9.908;2023-01-30T07:39:15;98429.19;;;2.97;75.91
64876;BME280;51369;49.862;9.908;2023-01-30T07:41:41;98423.88;;;2.95;75.59
64876;BME280;51369;49.862;9.908;2023-01-30T07:44:09;98425.69;;;2.93;76.26
64876;BME280;51369;49.862;9.908;2023-01-30T07:46:34;98435.47;;;2.92;76.17
64876;BME280;51369;49.862;9.908;2023-01-30T07:49:03;98414.16;;;2.91;75.76
64876;BME280;51369;49.862;9.908;2023-01-30T07:51:29;98423.94;;;2.89;75.87
64876;BME280;51369;49.862;9.908;2023-01-30T07:53:54;98417.75;;;2.87;75.18
64876;BME280;51369;49.862;9.908;2023-01-30T07:56:20;98422.22;;;2.85;75.39
64876;BME280;51369;49.862;9.908;2023-01-30T07:58:49;98431.13;;;2.84;75.49
64876;BME280;51369;49.862;9.908;2023-01-30T08:01:15;98420.47;;;2.82;77.04
64876;BME280;51369;49.862;9.908;2023-01-30T08:03:41;98440.06;;;2.80;76.02
64876;BME280;51369;49.862;9.908;2023-01-30T08:06:08;98437.41;;;2.78;76.68
64876;BME280;51369;49.862;9.908;2023-01-30T08:08:34;98440.06;;;2.80;76.94
64876;BME280;51369;49.862;9.908;2023-01-30T08:10:59;98432.06;;;2.78;76.58
64876;BME280;51369;49.862;9.908;2023-01-30T08:13:25;98435.63;;;2.79;77.08
64876;BME280;51369;49.862;9.908;2023-01-30T08:15:50;98420.53;;;2.78;75.70
64876;BME280;51369;49.862;9.908;2023-01-30T08:18:15;98416.06;;;2.80;76.95
64876;BME280;51369;49.862;9.908;2023-01-30T08:20:41;98416.06;;;2.80;77.49
64876;BME280;51369;49.862;9.908;2023-01-30T08:23:07;98416.06;;;2.80;76.76
64876;BME280;51369;49.862;9.908;2023-01-30T08:25:33;98410.72;;;2.81;76.49
64876;BME280;51369;49.862;9.908;2023-01-30T08:28:00;98415.13;;;2.82;76.09
64876;BME280;51369;49.862;9.908;2023-01-30T08:30:26;98400.03;;;2.83;76.91
64876;BME280;51369;49.862;9.908;2023-01-30T08:32:52;98398.25;;;2.83;76.74
64876;BME280;51369;49.862;9.908;2023-01-30T08:35:18;98401.78;;;2.85;76.50
64876;BME280;51369;49.862;9.908;2023-01-30T08:37:43;98405.31;;;2.86;76.96
64876;BME280;51369;49.862;9.908;2023-01-30T08:40:09;98402.63;;;2.87;76.31
64876;BME280;51369;49.862;9.908;2023-01-30T08:42:35;98399.94;;;2.90;77.09
64876;BME280;51369;49.862;9.908;2023-01-30T08:45:00;98398.13;;;2.94;76.53
64876;BME280;51369;49.862;9.908;2023-01-30T08:47:26;98404.31;;;2.96;76.22
64876;BME280;51369;49.862;9.908;2023-01-30T08:49:51;98412.28;;;2.99;76.76
64876;BME280;51369;49.862;9.908;2023-01-30T08:52:18;98411.34;;;3.02;77.36
64876;BME280;51369;49.862;9.908;2023-01-30T08:54:43;98409.53;;;3.05;76.81
64876;BME280;51369;49.862;9.908;2023-01-30T08:57:09;98401.50;;;3.08;77.25
64876;BME280;51369;49.862;9.908;2023-01-30T08:59:35;98395.25;;;3.11;76.37
64876;BME280;51369;49.862;9.908;2023-01-30T09:02:00;98391.66;;;3.13;77.08
64876;BME280;51369;49.862;9.908;2023-01-30T09:04:29;98405.84;;;3.17;77.23
64876;BME280;51369;49.862;9.908;2023-01-30T09:06:55;98404.03;;;3.19;75.89
64876;BME280;51369;49.862;9.908;2023-01-30T09:09:20;98384.44;;;3.21;76.58
64876;BME280;51369;49.862;9.908;2023-01-30T09:11:46;98387.06;;;3.24;76.10
64876;BME280;51369;49.862;9.908;2023-01-30T09:14:15;98383.50;;;3.25;76.19
64876;BME280;51369;49.862;9.908;2023-01-30T09:16:45;98372.78;;;3.27;75.59
64876;BME280;51369;49.862;9.908;2023-01-30T09:19:10;98379.88;;;3.30;75.66
64876;BME280;51369;49.862;9.908;2023-01-30T09:21:35;98372.72;;;3.32;76.26
64876;BME280;51369;49.862;9.908;2023-01-30T09:24:03;98364.69;;;3.35;76.05
64876;BME280;51369;49.862;9.908;2023-01-30T09:26:29;98351.31;;;3.36;76.58
64876;BME280;51369;49.862;9.908;2023-01-30T09:28:54;98341.50;;;3.38;76.17
64876;BME280;51369;49.862;9.908;2023-01-30T09:31:19;98337.06;;;3.39;76.71
64876;BME280;51369;49.862;9.908;2023-01-30T09:33:45;98337.91;;;3.41;75.65
64876;BME280;51369;49.862;9.908;2023-01-30T09:36:10;98330.75;;;3.43;76.36
64876;BME280;51369;49.862;9.908;2023-01-30T09:38:35;98347.63;;;3.45;75.73
64876;BME280;51369;49.862;9.908;2023-01-30T09:43:59;98339.53;;;3.48;75.33
64876;BME280;51369;49.862;9.908;2023-01-30T09:46:48;98337.72;;;3.51;75.40
64876;BME280;51369;49.862;9.908;2023-01-30T09:49:30;98319.00;;;3.53;76.30
64876;BME280;51369;49.862;9.908;2023-01-30T09:52:12;98318.06;;;3.55;75.37
64876;BME280;51369;49.862;9.908;2023-01-30T09:54:43;98314.50;;;3.56;75.66
64876;BME280;51369;49.862;9.908;2023-01-30T09:57:15;98290.44;;;3.59;75.82
64876;BME280;51369;49.862;9.908;2023-01-30T10:02:43;98301.03;;;3.64;75.68
64876;BME280;51369;49.862;9.908;2023-01-30T10:05:11;98301.84;;;3.69;76.35
64876;BME280;51369;49.862;9.908;2023-01-30T10:10:26;98302.63;;;3.76;75.67
64876;BME280;51369;49.862;9.908;2023-01-30T10:13:24;98292.75;;;3.81;75.40
64876;BME280;51369;49.862;9.908;2023-01-30T10:26:48;98300.31;;;4.05;75.26
64876;BME280;51369;49.862;9.908;2023-01-30T10:29:19;98304.72;;;4.08;74.72
64876;BME280;51369;49.862;9.908;2023-01-30T10:31:48;98299.34;;;4.11;74.83
64876;BME280;51369;49.862;9.908;2023-01-30T10:34:32;98290.41;;;4.12;75.24
64876;BME280;51369;49.862;9.908;2023-01-30T10:38:02;98285.91;;;4.14;74.72
64876;BME280;51369;49.862;9.908;2023-01-30T10:42:51;98296.53;;;4.17;74.98
64876;BME280;51369;49.862;9.908;2023-01-30T10:45:29;98301.84;;;4.20;74.96
64876;BME280;51369;49.862;9.908;2023-01-30T10:51:04;98306.28;;;4.19;73.98
64876;BME280;51369;49.862;9.908;2023-01-30T10:53:38;98321.34;;;4.25;74.42
64876;BME280;51369;49.862;9.908;2023-01-30T10:56:14;98317.75;;;4.26;74.79
64876;BME280;51369;49.862;9.908;2023-01-30T10:59:22;98326.63;;;4.28;74.33
64876;BME280;51369;49.862;9.908;2023-01-30T11:02:12;98309.66;;;4.31;74.85
64876;BME280;51369;49.862;9.908;2023-01-30T11:04:47;98326.50;;;4.34;75.05
64876;BME280;51369;49.862;9.908;2023-01-30T11:07:15;98320.25;;;4.35;75.28
64876;BME280;51369;49.862;9.908;2023-01-30T11:09:44;98325.56;;;4.37;74.36
64876;BME280;51369;49.862;9.908;2023-01-30T11:12:10;98326.41;;;4.40;75.32
64876;BME280;51369;49.862;9.908;2023-01-30T11:14:52;98331.69;;;4.43;75.12
64876;BME280;51369;49.862;9.908;2023-01-30T11:17:20;98326.19;;;4.51;75.35
64876;BME280;51369;49.862;9.908;2023-01-30T11:19:54;98315.34;;;4.58;74.56
64876;BME280;51369;49.862;9.908;2023-01-30T11:22:23;98318.78;;;4.65;74.83
64876;BME280;51369;49.862;9.908;2023-01-30T11:24:59;98316.03;;;4.68;75.26
64876;BME280;51369;49.862;9.908;2023-01-30T11:27:31;98325.75;;;4.74;74.46
64876;BME280;51369;49.862;9.908;2023-01-30T11:32:28;98336.28;;;4.81;74.50
64876;BME280;51369;49.862;9.908;2023-01-30T11:40:22;98322.78;;;4.87;74.85
64876;BME280;51369;49.862;9.908;2023-01-30T11:43:00;98324.56;;;4.87;74.92
64876;BME280;51369;49.862;9.908;2023-01-30T11:45:26;98322.78;;;4.87;74.54
64876;BME280;51369;49.862;9.908;2023-01-30T11:48:04;98315.66;;;4.86;74.13
64876;BME280;51369;49.862;9.908;2023-01-30T11:50:39;98320.91;;;4.91;74.86
64876;BME280;51369;49.862;9.908;2023-01-30T11:53:24;98313.63;;;4.99;75.36
64876;BME280;51369;49.862;9.908;2023-01-30T11:55:56;98316.06;;;5.10;74.62
64876;BME280;51369;49.862;9.908;2023-01-30T11:58:22;98304.28;;;5.18;75.17
64876;BME280;51369;49.862;9.908;2023-01-30T12:00:48;98279.09;;;5.26;74.75
64876;BME280;51369;49.862;9.908;2023-01-30T12:03:18;98289.59;;;5.35;74.63
64876;BME280;51369;49.862;9.908;2023-01-30T12:05:47;98292.09;;;5.42;74.33
64876;BME280;51369;49.862;9.908;2023-01-30T12:10:49;98306.81;;;5.62;75.06
64876;BME280;51369;49.862;9.908;2023-01-30T12:13:21;98308.25;;;5.75;74.93
64876;BME280;51369;49.862;9.908;2023-01-30T12:15:52;98307.03;;;5.90;74.44
64876;BME280;51369;49.862;9.908;2023-01-30T12:18:25;98287.03;;;6.03;74.51
64876;BME280;51369;49.862;9.908;2023-01-30T12:20:59;98284.09;;;6.13;74.39
64876;BME280;51369;49.862;9.908;2023-01-30T12:26:29;98282.16;;;6.18;73.35
64876;BME280;51369;49.862;9.908;2023-01-30T12:31:43;98267.13;;;6.13;72.88
64876;BME280;51369;49.862;9.908;2023-01-30T12:34:10;98257.41;;;6.09;72.79
64876;BME280;51369;49.862;9.908;2023-01-30T12:40:32;98240.88;;;5.92;73.48
64876;BME280;51369;49.862;9.908;2023-01-30T12:51:49;98240.84;;;5.57;73.46
64876;BME280;51369;49.862;9.908;2023-01-30T13:12:45;98291.06;;;5.48;75.41
64876;BME280;51369;49.862;9.908;2023-01-30T13:15:37;98279.47;;;5.47;75.21
64876;BME280;51369;49.862;9.908;2023-01-30T13:18:28;98282.06;;;5.50;74.87
64876;BME280;51369;49.862;9.908;2023-01-30T13:26:21;98289.94;;;5.58;75.37
64876;BME280;51369;49.862;9.908;2023-01-30T13:28:57;98290.72;;;5.62;75.06
64876;BME280;51369;49.862;9.908;2023-01-30T13:31:27;98304.88;;;5.67;74.83
64876;BME280;51369;49.862;9.908;2023-01-30T13:34:04;98309.28;;;5.69;74.89
64876;BME280;51369;49.862;9.908;2023-01-30T13:36:46;98299.50;;;5.68;74.42
64876;BME280;51369;49.862;9.908;2023-01-30T13:39:30;98304.00;;;5.66;74.55
64876;BME280;51369;49.862;9.908;2023-01-30T13:41:59;98309.44;;;5.63;74.40
64876;BME280;51369;49.862;9.908;2023-01-30T13:44:28;98304.22;;;5.57;74.25
64876;BME280;51369;49.862;9.908;2023-01-30T13:46:56;98315.03;;;5.54;74.77
64876;BME280;51369;49.862;9.908;2023-01-30T13:49:38;98324.06;;;5.48;74.58
64876;BME280;51369;49.862;9.908;2023-01-30T13:52:39;98308.09;;;5.45;75.57
64876;BME280;51369;49.862;9.908;2023-01-30T13:55:20;98311.63;;;5.46;74.78
64876;BME280;51369;49.862;9.908;2023-01-30T13:57:49;98314.25;;;5.49;75.57
64876;BME280;51369;49.862;9.908;2023-01-30T14:00:28;98310.69;;;5.48;76.09
64876;BME280;51369;49.862;9.908;2023-01-30T14:08:18;98316.63;;;5.61;76.48
64876;BME280;51369;49.862;9.908;2023-01-30T14:10:45;98311.13;;;5.67;76.13
64876;BME280;51369;49.862;9.908;2023-01-30T14:13:13;98306.63;;;5.69;76.12
64876;BME280;51369;49.862;9.908;2023-01-30T14:15:54;98309.25;;;5.71;76.08
64876;BME280;51369;49.862;9.908;2023-01-30T14:18:27;98305.59;;;5.75;75.59
64876;BME280;51369;49.862;9.908;2023-01-30T14:21:18;98316.13;;;5.82;76.39
64876;BME280;51369;49.862;9.908;2023-01-30T14:24:03;98314.06;;;5.94;75.82
64876;BME280;51369;49.862;9.908;2023-01-30T14:27:02;98326.28;;;6.05;75.73
64876;BME280;51369;49.862;9.908;2023-01-30T14:39:59;98335.00;;;6.47;74.80
64876;BME280;51369;49.862;9.908;2023-01-30T14:42:27;98352.88;;;6.48;74.38
64876;BME280;51369;49.862;9.908;2023-01-30T14:45:14;98352.09;;;6.43;74.66
64876;BME280;51369;49.862;9.908;2023-01-30T14:47:40;98352.06;;;6.45;74.25
64876;BME280;51369;49.862;9.908;2023-01-30T14:50:21;98351.22;;;6.43;74.34
64876;BME280;51369;49.862;9.908;2023-01-30T14:52:48;98346.75;;;6.43;74.17
64876;BME280;51369;49.862;9.908;2023-01-30T14:55:20;98358.47;;;6.39;73.69
64876;BME280;51369;49.862;9.908;2023-01-30T14:57:52;98363.06;;;6.34;73.80
64876;BME280;51369;49.862;9.908;2023-01-30T15:00:25;98375.69;;;6.31;74.01
64876;BME280;51369;49.862;9.908;2023-01-30T15:02:55;98366.00;;;6.25;73.64
64876;BME280;51369;49.862;9.908;2023-01-30T15:05:31;98384.88;;;6.20;73.62
64876;BME280;51369;49.862;9.908;2023-01-30T15:15:56;98404.97;;;6.03;74.31
64876;BME280;51369;49.862;9.908;2023-01-30T15:27:19;98417.66;;;5.95;74.35
64876;BME280;51369;49.862;9.908;2023-01-30T15:29:58;98429.34;;;5.92;73.96
64876;BME280;51369;49.862;9.908;2023-01-30T15:32:28;98421.31;;;5.92;74.14
64876;BME280;51369;49.862;9.908;2023-01-30T15:35:00;98439.22;;;5.90;74.25
64876;BME280;51369;49.862;9.908;2023-01-30T15:37:39;98439.22;;;5.88;73.91
64876;BME280;51369;49.862;9.908;2023-01-30T15:42:46;98445.41;;;5.92;73.59
64876;BME280;51369;49.862;9.908;2023-01-30T15:45:19;98453.47;;;5.92;74.22
64876;BME280;51369;49.862;9.908;2023-01-30T15:48:00;98459.72;;;5.91;74.11